ESNK/KRF METAR and TAF weather

Enter ICAO airport designator
Station Type Date Time Source
ESNK METAR 2020/02/19 11:20 UTC NOAA

ESNK 191120Z AUTO 34008KT 9999 NCD 01/M07 Q0998


Station Type Date Time Source
ESNK Decoded METAR 2020/02/19 11:20 UTC NOAA

Kramfors Flygplats, Sweden (ESNK) 63-03N 017-46E 19M
Feb 19, 2020 - 06:20 AM EST / 2020.02.19 1120 UTC
Wind: from the NNW (340 degrees) at 9 MPH (8 KT):0
Visibility: greater than 7 mile(s):0
Temperature: 33 F (1 C)
Windchill: 24 F (-4 C):1
Dew Point: 19 F (-7 C)
Relative Humidity: 55%
Pressure (altimeter): 29.47 in. Hg (0998 hPa)
ob: ESNK 191120Z AUTO 34008KT 9999 NCD 01/M07 Q0998
cycle: 11

Station Type Date Time Source
ESNK TAF 2017/12/15 06:00 UTC NOAA

TAF
AMD ESNK 150654Z 1506/1521 35005KT 6000 -SN BKN016
TEMPO 1506/1521 2000 SN SG VV009

Example: see airport list